tititudorancea.com
Ararat Weather - Ararat,Victoria,Australia
 
Daily Summary for November 24, 2014 Units:  Metric    English   Both
« Previous Day
Next Day »
Daily Weekly Monthly Yearly Custom
  Current: High: Low: Average:
Temperature: 16.3 °C 16.9 °C 13.7 °C 15 °C
Dew Point: 13.4 °C 13.6 °C 6.4 °C 8.9 °C
Humidity: 83% 84% 50% 68%
Wind Speed: 6.1km/h 19.5km/h 0km/h 2.6km/h
Wind Gust: 13.4km/h 48.9km/h - -
WindENE - - South
Pressure: 991.1 hPa 993.8 hPa 989.1 hPa -
Precipitation: 9.65 mm      
Historical Graphs
 
 
Ararat weather Find more about Weather in Ararat, AU


 




 


Tabular Data for November 24, 2014
Time Temperature Dew Point Pressure Wind Wind Speed Wind Gust Humidity Rainfall Rate (Hourly)
00:03 16.7 °C 8.6 °C 993.5 hPa SW 3.5 km/h 7.2 km/h 59% 0 mm
00:08 16.7 °C 8.4 °C 993.8 hPa SW 1.1 km/h 6.1 km/h 58% 0 mm
00:13 16.7 °C 8.4 °C 993.5 hPa SSW 1.1 km/h 6.1 km/h 58% 0 mm
00:18 16.4 °C 8.4 °C 993.1 hPa South 2.6 km/h 3.5 km/h 59% 0 mm
00:23 16.4 °C 8.3 °C 993.5 hPa SSE 1.1 km/h 5 km/h 59% 0 mm
00:28 16.3 °C 8.5 °C 993.5 hPa South 2.6 km/h 5 km/h 60% 0 mm
00:33 16.2 °C 8.4 °C 993.5 hPa South 1.1 km/h 3.5 km/h 60% 0 mm
00:38 16 °C 8.2 °C 993.5 hPa SSE 1.1 km/h 3.5 km/h 60% 0 mm
00:43 16 °C 8.4 °C 993.1 hPa SSE 2.6 km/h 5 km/h 61% 0 mm
00:48 15.8 °C 8.3 °C 993.1 hPa SSE 1.1 km/h 5 km/h 61% 0 mm
00:53 15.7 °C 8.4 °C 993.1 hPa SSE 3.5 km/h 6.1 km/h 62% 0 mm
00:58 15.5 °C 8.2 °C 993.1 hPa SSE 1.1 km/h 6.1 km/h 62% 0 mm
01:03 15.3 °C 8.1 °C 993.1 hPa SSE 2.6 km/h 6.1 km/h 62% 0 mm
01:08 15.1 °C 8.1 °C 993.1 hPa South 2.6 km/h 5 km/h 63% 0 mm
01:13 15 °C 8 °C 993.1 hPa South 2.6 km/h 6.1 km/h 63% 0 mm
01:18 15 °C 8 °C 993.1 hPa Calm   6.1 km/h 63% 0 mm
01:23 15 °C 7.8 °C 992.8 hPa Calm   3.5 km/h 62% 0 mm
01:28 15.1 °C 7.9 °C 992.4 hPa SE 2.6 km/h 3.5 km/h 62% 0 mm
01:33 15 °C 7.8 °C 992.4 hPa Calm   5 km/h 62% 0 mm
01:39 14.8 °C 7.6 °C 992.4 hPa ESE 1.1 km/h 5 km/h 62% 0 mm
01:43 14.7 °C 7.7 °C 992.8 hPa ESE 2.6 km/h 5 km/h 63% 0 mm
01:49 14.7 °C 7.5 °C 992.4 hPa East 1.1 km/h 3.5 km/h 62% 0 mm
01:54 14.6 °C 7.7 °C 992.4 hPa East 2.6 km/h 5 km/h 63% 0 mm
01:59 14.4 °C 7.4 °C 992.4 hPa ESE 3.5 km/h 6.1 km/h 63% 0 mm
02:04 14.3 °C 7.4 °C 992.4 hPa ESE 1.1 km/h 6.1 km/h 63% 0 mm
02:09 14.1 °C 7.4 °C 992.1 hPa ESE 2.6 km/h 6.1 km/h 64% 0 mm
02:14 14 °C 7.3 °C 992.1 hPa East 1.1 km/h 5 km/h 64% 0 mm
02:19 13.8 °C 7.1 °C 992.1 hPa Calm   5 km/h 64% 0 mm
02:24 13.8 °C 7.1 °C 992.1 hPa Calm   3.5 km/h 64% 0 mm
02:29 13.9 °C 7.2 °C 991.8 hPa East 1.1 km/h 3.5 km/h 64% 0 mm
02:34 14 °C 7.1 °C 991.8 hPa ENE 2.6 km/h 5 km/h 63% 0 mm
02:39 14 °C 7.1 °C 991.4 hPa Calm   5 km/h 63% 0 mm
02:44 14 °C 7.1 °C 991.4 hPa East 1.1 km/h 5 km/h 63% 0 mm
02:49 13.9 °C 7.2 °C 991.1 hPa SSE 1.1 km/h 3.5 km/h 64% 0 mm
02:54 13.8 °C 7.1 °C 991.1 hPa SSE 1.1 km/h 3.5 km/h 64% 0 mm
02:59 13.9 °C 7.2 °C 991.1 hPa South 1.1 km/h 3.5 km/h 64% 0 mm
03:04 13.8 °C 7.3 °C 991.1 hPa SSE 1.1 km/h 3.5 km/h 65% 0 mm
03:09 13.8 °C 7.3 °C 991.1 hPa SE 1.1 km/h 2.6 km/h 65% 0 mm
03:14 13.9 °C 7.4 °C 991.1 hPa SSE 1.1 km/h 2.6 km/h 65% 0 mm
03:19 13.7 °C 7.3 °C 991.1 hPa Calm   2.6 km/h 65% 0 mm
03:24 13.7 °C 7.3 °C 991.1 hPa South 1.1 km/h 2.6 km/h 65% 0 mm
03:29 13.8 °C 7.3 °C 991.1 hPa Calm   2.6 km/h 65% 0 mm
03:34 13.9 °C 7.4 °C 991.1 hPa WSW 1.1 km/h 3.5 km/h 65% 0 mm
03:39 14 °C 7.3 °C 991.1 hPa Calm   3.5 km/h 64% 0 mm
03:44 14.1 °C 7.4 °C 991.1 hPa WSW 1.1 km/h 3.5 km/h 64% 0 mm
03:49 14 °C 7.6 °C 991.4 hPa Calm   2.6 km/h 65% 0 mm
03:55 14.1 °C 7.4 °C 991.4 hPa ESE 1.1 km/h 2.6 km/h 64% 0 mm
04:00 14.2 °C 7.5 °C 991.4 hPa East 1.1 km/h 3.5 km/h 64% 0 mm
04:05 14.2 °C 7.5 °C 990.7 hPa East 1.1 km/h 5 km/h 64% 0 mm
04:10 14.1 °C 7.6 °C 990.7 hPa East 3.5 km/h 7.2 km/h 65% 0 mm
04:15 14 °C 7.6 °C 990.7 hPa East 1.1 km/h 7.2 km/h 65% 0 mm
04:20 14 °C 7.6 °C 990.7 hPa Calm   6.1 km/h 65% 0 mm
04:25 14.1 °C 7.6 °C 990.7 hPa ENE 1.1 km/h 3.5 km/h 65% 0 mm
04:30 14.1 °C 7.6 °C 990.4 hPa Calm   2.6 km/h 65% 0 mm
04:35 14.1 °C 7.6 °C 990.4 hPa NNE 1.1 km/h 3.5 km/h 65% 0 mm
04:40 14.2 °C 7.7 °C 990.4 hPa Calm   3.5 km/h 65% 0 mm
04:45 14.2 °C 7.7 °C 989.7 hPa SE 1.1 km/h 3.5 km/h 65% 0 mm
04:50 14.1 °C 7.6 °C 990.1 hPa ESE 2.6 km/h 3.5 km/h 65% 0 mm
04:55 14.1 °C 7.6 °C 990.1 hPa Calm   3.5 km/h 65% 0 mm
05:00 14.1 °C 7.6 °C 989.7 hPa Calm   3.5 km/h 65% 0 mm
05:05 14 °C 7.6 °C 989.4 hPa Calm   2.6 km/h 65% 0 mm
05:10 14 °C 7.6 °C 989.4 hPa Calm   2.6 km/h 65% 0 mm
05:15 14 °C 7.6 °C 989.4 hPa NNW 1.1 km/h 2.6 km/h 65% 0 mm
05:20 14 °C 7.6 °C 989.4 hPa Calm   2.6 km/h 65% 0 mm
05:25 14 °C 7.8 °C 989.4 hPa NNW 1.1 km/h 3.5 km/h 66% 0 mm
05:30 14 °C 7.6 °C 989.4 hPa North 1.1 km/h 3.5 km/h 65% 0 mm
05:36 14 °C 7.6 °C 989.4 hPa NNW 1.1 km/h 3.5 km/h 65% 0 mm
05:41 14.1 °C 7.6 °C 989.1 hPa NNW 1.1 km/h 3.5 km/h 65% 0 mm
05:46 14.1 °C 7.6 °C 989.1 hPa NW 1.1 km/h 3.5 km/h 65% 0 mm
05:51 14.1 °C 7.6 °C 989.4 hPa NW 1.1 km/h 3.5 km/h 65% 0 mm
05:56 14.2 °C 7.5 °C 989.4 hPa WNW 2.6 km/h 3.5 km/h 64% 0 mm
06:01 14.3 °C 7.1 °C 989.1 hPa West 1.1 km/h 3.5 km/h 62% 0 mm
06:06 14.5 °C 7.1 °C 989.1 hPa Calm   3.5 km/h 61% 0 mm
06:11 14.6 °C 7.2 °C 989.1 hPa Calm   2.6 km/h 61% 0 mm
06:16 14.7 °C 7.3 °C 989.4 hPa NE 1.1 km/h 3.5 km/h 61% 0 mm
06:21 14.8 °C 7.8 °C 989.7 hPa East 5 km/h 7.2 km/h 63% 0 mm
06:26 16.4 °C 6.6 °C 990.7 hPa WNW 19.5 km/h 36.7 km/h 52% 0 mm
06:31 16.9 °C 6.4 °C 991.4 hPa WNW 8.7 km/h 48.9 km/h 50% 0 mm
06:36 16.8 °C 7.9 °C 991.4 hPa WNW 8.7 km/h 48.9 km/h 56% 0.25 mm
06:41 16.2 °C 8.4 °C 991.1 hPa NW 2.6 km/h 13.4 km/h 60% 0.76 mm
06:46 16 °C 8.9 °C 991.4 hPa NW 2.6 km/h 12.2 km/h 63% 1.02 mm
06:51 15.8 °C 9 °C 991.4 hPa WNW 5 km/h 7.2 km/h 64% 1.02 mm
06:56 15.8 °C 9 °C 991.4 hPa West 1.1 km/h 8.7 km/h 64% 1.02 mm
07:01 15.8 °C 9.7 °C 991.4 hPa WSW 1.1 km/h 8.7 km/h 67% 1.02 mm
07:06 15.7 °C 9.8 °C 991.4 hPa East 1.1 km/h 5 km/h 68% 1.02 mm
07:11 15.6 °C 9.5 °C 991.8 hPa SE 6.1 km/h 11.1 km/h 67% 1.02 mm
07:16 15.1 °C 9.2 °C 991.4 hPa SSE 3.5 km/h 11.1 km/h 68% 1.02 mm
07:21 14.9 °C 9.5 °C 992.1 hPa SSE 2.6 km/h 9.7 km/h 70% 1.02 mm
07:26 14.8 °C 9.4 °C 992.8 hPa South 3.5 km/h 7.2 km/h 70% 1.02 mm
07:31 14.8 °C 9.4 °C 992.8 hPa SW 1.1 km/h 8.7 km/h 70% 1.02 mm
07:37 14.9 °C 9.5 °C 993.1 hPa WSW 3.5 km/h 8.7 km/h 70% 0.76 mm
07:42 15.1 °C 10.1 °C 992.4 hPa West 5 km/h 8.7 km/h 72% 0.25 mm
07:47 15.1 °C 10.3 °C 992.1 hPa ENE 5 km/h 7.2 km/h 73% 0.76 mm
07:52 15 °C 10.4 °C 991.4 hPa ENE 2.6 km/h 7.2 km/h 74% 0.76 mm
07:57 15.1 °C 10.5 °C 991.4 hPa East 2.6 km/h 7.2 km/h 74% 0.76 mm
08:02 15.1 °C 10.5 °C 991.4 hPa East 5 km/h 8.7 km/h 74% 0.76 mm
08:07 15.1 °C 10.5 °C 991.1 hPa ENE 5 km/h 12.2 km/h 74% 0.76 mm
08:12 15 °C 10.4 °C 990.4 hPa ENE 3.5 km/h 12.2 km/h 74% 0.76 mm
08:17 15 °C 10.6 °C 990.7 hPa East 6.1 km/h 9.7 km/h 75% 0.76 mm
08:22 15.1 °C 10.5 °C 990.7 hPa ENE 7.2 km/h 9.7 km/h 74% 0.76 mm
08:27 15.1 °C 10.5 °C 990.7 hPa NE 2.6 km/h 9.7 km/h 74% 0.76 mm
08:32 15.2 °C 10.6 °C 991.1 hPa North 2.6 km/h 9.7 km/h 74% 0.76 mm
08:37 15.1 °C 10.5 °C 991.1 hPa WNW 2.6 km/h 6.1 km/h 74% 0.76 mm
08:42 15.1 °C 11.1 °C 991.8 hPa West 3.5 km/h 8.7 km/h 77% 0.25 mm
08:47 15.1 °C 11.3 °C 991.4 hPa West 5 km/h 11.1 km/h 78% 0.25 mm
08:52 15.1 °C 11.1 °C 991.8 hPa WNW 2.6 km/h 11.1 km/h 77% 0.25 mm
08:57 15.3 °C 11.1 °C 991.1 hPa NW 3.5 km/h 11.1 km/h 76% 0.25 mm
09:02 15.8 °C 10.9 °C 991.1 hPa WNW 3.5 km/h 11.1 km/h 73% 0.25 mm
09:07 16.2 °C 10.9 °C 990.7 hPa WSW 2.6 km/h 9.7 km/h 71% 0.25 mm
09:12 16.4 °C 11.3 °C 991.8 hPa SW 5 km/h 7.2 km/h 72% 0.25 mm
09:17 16.4 °C 11.9 °C 992.8 hPa West 9.7 km/h 19.5 km/h 75% 1.02 mm
09:22 16 °C 12.2 °C 991.8 hPa WNW 6.1 km/h 19.5 km/h 78% 3.56 mm
09:27 15.8 °C 12.3 °C 990.7 hPa NW 5 km/h 19.5 km/h 80% 4.06 mm
09:33 16 °C 12.7 °C 990.7 hPa NNE 2.6 km/h 9.7 km/h 81% 4.06 mm
09:38 16 °C 12.9 °C 990.7 hPa NNE 3.5 km/h 6.1 km/h 82% 4.06 mm
09:43 16.1 °C 13 °C 991.1 hPa SE 1.1 km/h 6.1 km/h 82% 4.06 mm
09:48 16.1 °C 13.2 °C 990.4 hPa East 7.2 km/h 8.7 km/h 83% 3.56 mm
09:53 16.3 °C 13.6 °C 990.1 hPa ENE 7.2 km/h 11.1 km/h 84% 3.56 mm
09:58 16.3 °C 13.4 °C 990.1 hPa ENE 6.1 km/h 12.2 km/h 83% 3.56 mm
10:03 16.3 °C 13.2 °C 990.1 hPa ENE 3.5 km/h 12.2 km/h 82% 3.56 mm
10:08 16.4 °C 13.3 °C 991.4 hPa NE 3.5 km/h 11.1 km/h 82% 3.56 mm
10:13 16.2 °C 13.4 °C 992.4 hPa NW 5 km/h 12.2 km/h 84% 5.84 mm
10:18 16 °C 13.3 °C 992.8 hPa NW 3.5 km/h 12.2 km/h 84% 4.57 mm
10:23 15.8 °C 13.1 °C 992.4 hPa WNW 7.2 km/h 13.4 km/h 84% 4.06 mm
10:28 15.9 °C 13.2 °C 992.1 hPa NW 3.5 km/h 13.4 km/h 84% 4.06 mm
10:33 16.2 °C 13.4 °C 991.4 hPa NNE 5 km/h 13.4 km/h 84% 4.06 mm
10:38 16.3 °C 13.4 °C 991.1 hPa ENE 6.1 km/h 13.4 km/h 83% 4.06 mm
www.araratweather.com - Email: contact at araratweather.com
Data created with Cumulus & bmak
Click here to send mail.


ABOUT

Live weather data from Ararat, Victoria, Australia, 3377
Data uploaded from Cumulus every 5 minutes to Weather Underground.
This site then downloads the raw data for formatting and display.
Metric and imperial data can be displayed. Graphs and historical data available.
Includes Sun and Moon times and rain image live from BOM.

Check out Ararat Weather on Facebook, Twitter and Google +

Help support ongoing costs by checking out the ads





Follow @AraratWeather